Cushman, Massachusetts
Current Conditions -  °F | °C
As of 3:58 AM on Monday 22 Dec 2014 (Local Time) from KCEF Reporting Station
Overcast Overcast  
Wind Chill: 31°   Ceiling: 1500
Heat Index: 31°   Visibility: 10mi
Dew Point: 30°   Wind: 2mph
Humidity: 94%   Direction: 30°NNE
Pressure: 30.34"   Gusts: NA
Location:  42.3773°N, 72.4671°W
Report Text: KCEF 220858Z AUTO 03002KT 10SM OVC015 00/M01 A3034 RMK AO2 UPB0816E0827 SLP283 P0000 60000 T10041012 56001
Loading
Personal Weather Stations






























Interactive Weather Map New forecast layout! Learn more

10-Day Weather Forecast

Advertisements
Track Severe Weather on mobile